Wetterdaten: Woche 08.06.20 - 14.06.20 (KW24)
Datum Zeit Temp. Aussen Temp. o. S. Temp +5cm Feuchte Auss Luftdruck Regen Sonnenschein Regendauer Solar Windben Empfang
08.06.2020 00:00 12,3 C 11,2 C 11,1 C 87 % 1012,5 hPa 0,0 l/m 0,00 h 0,00 h 0 W/m 0,0 km/h (0 Bft) 97,93 %
08.06.2020 01:00 12,2 C 11,5 C 11,2 C 88 % 1012,7 hPa 0,0 l/m 0,00 h 0,00 h 0 W/m 0,0 km/h (0 Bft) 96,94 %
08.06.2020 02:00 12,2 C 11,5 C 11,3 C 89 % 1012,8 hPa 0,0 l/m 0,00 h 0,00 h 0 W/m 0,5 km/h (0 Bft) 97,15 %
08.06.2020 03:00 12,2 C 11,1 C 11,1 C 89 % 1012,9 hPa 0,0 l/m 0,00 h 0,00 h 0 W/m 1,0 km/h (0 Bft) 97,15 %
08.06.2020 04:00 11,9 C 11,1 C 11,1 C 89 % 1012,7 hPa 0,0 l/m 0,00 h 0,00 h 0 W/m 0,3 km/h (0 Bft) 98,08 %
08.06.2020 05:00 11,8 C 10,8 C 10,7 C 89 % 1012,9 hPa 0,0 l/m 0,00 h 0,00 h 8 W/m 0,1 km/h (0 Bft) 98,36 %
08.06.2020 06:00 11,8 C 11,6 C 11,2 C 91 % 1013,1 hPa 0,0 l/m 0,00 h 0,00 h 46 W/m 1,5 km/h (1 Bft) 95,80 %
08.06.2020 07:00 12,6 C 13,2 C 12,4 C 90 % 1013,6 hPa 0,0 l/m 0,00 h 0,00 h 102 W/m 1,6 km/h (1 Bft) 98,29 %
08.06.2020 08:00 14,2 C 16,5 C 14,9 C 86 % 1013,9 hPa 0,0 l/m 0,03 h 0,00 h 184 W/m 8,5 km/h (2 Bft) 98,93 %
08.06.2020 09:00 15,8 C 18,3 C 17,1 C 80 % 1014,1 hPa 0,0 l/m 0,83 h 0,00 h 346 W/m 10,6 km/h (2 Bft) 94,14 %
08.06.2020 10:00 16,1 C 17,1 C 16,0 C 78 % 1014,3 hPa 0,0 l/m 0,30 h 0,00 h 270 W/m 8,4 km/h (2 Bft) 99,07 %
08.06.2020 11:00 15,6 C 15,6 C 14,8 C 81 % 1014,6 hPa 0,0 l/m 0,00 h 0,03 h 139 W/m 2,0 km/h (1 Bft) 98,72 %
08.06.2020 12:00 17,3 C 21,9 C 17,8 C 76 % 1014,4 hPa 0,0 l/m 0,43 h 0,00 h 531 W/m 6,2 km/h (2 Bft) 96,57 %
08.06.2020 13:00 17,0 C 17,7 C 16,0 C 78 % 1014,4 hPa 0,0 l/m 0,27 h 0,20 h 352 W/m 5,8 km/h (2 Bft) 97,44 %
08.06.2020 14:00 19,2 C 23,5 C 19,5 C 69 % 1014,2 hPa 0,0 l/m 0,77 h 0,00 h 619 W/m 10,4 km/h (2 Bft) 96,82 %
08.06.2020 15:00 19,7 C 22,3 C 18,8 C 65 % 1014,1 hPa 0,0 l/m 0,50 h 0,00 h 548 W/m 9,2 km/h (2 Bft) 97,99 %
08.06.2020 16:00 18,5 C 18,2 C 17,1 C 73 % 1014,6 hPa 0,0 l/m 0,00 h 0,00 h 242 W/m 7,9 km/h (2 Bft) 98,29 %
08.06.2020 17:00 17,1 C 17,2 C 16,1 C 78 % 1014,5 hPa 0,0 l/m 0,00 h 0,00 h 157 W/m 3,0 km/h (1 Bft) 97,01 %
08.06.2020 18:00 17,1 C 17,3 C 15,9 C 78 % 1014,5 hPa 0,0 l/m 0,03 h 0,00 h 151 W/m 3,4 km/h (1 Bft) 96,80 %
08.06.2020 19:00 18,0 C 18,5 C 16,3 C 76 % 1014,6 hPa 0,0 l/m 0,53 h 0,00 h 244 W/m 3,8 km/h (1 Bft) 98,01 %
08.06.2020 20:00 17,2 C 15,4 C 14,9 C 79 % 1014,9 hPa 0,0 l/m 0,00 h 0,00 h 45 W/m 1,6 km/h (1 Bft) 98,64 %
08.06.2020 21:00 15,8 C 14,0 C 13,9 C 84 % 1015,5 hPa 0,0 l/m 0,00 h 0,00 h 10 W/m 0,0 km/h (0 Bft) 95,32 %
08.06.2020 22:00 14,9 C 13,3 C 13,4 C 87 % 1016,0 hPa 0,0 l/m 0,00 h 0,00 h 0 W/m 0,1 km/h (0 Bft) 98,30 %
08.06.2020 23:00 14,4 C 13,0 C 13,0 C 89 % 1016,5 hPa 0,0 l/m 0,00 h 0,00 h 0 W/m 0,1 km/h (0 Bft) 97,72 %
09.06.2020 00:00 13,8 C 12,0 C 12,1 C 90 % 1016,4 hPa 0,0 l/m 0,00 h 0,00 h 0 W/m 0,1 km/h (0 Bft) 98,68 %
09.06.2020 01:00 12,9 C 10,8 C 10,9 C 91 % 1016,6 hPa 0,0 l/m 0,00 h 0,00 h 0 W/m 0,2 km/h (0 Bft) 95,37 %
09.06.2020 02:00 12,3 C 11,2 C 11,3 C 93 % 1016,7 hPa 0,0 l/m 0,00 h 0,00 h 0 W/m 1,5 km/h (1 Bft) 97,37 %
09.06.2020 03:00 12,2 C 11,1 C 11,1 C 95 % 1016,8 hPa 0,0 l/m 0,00 h 0,00 h 0 W/m 0,9 km/h (0 Bft) 99,29 %
09.06.2020 04:00 12,1 C 11,3 C 11,4 C 95 % 1016,6 hPa 0,0 l/m 0,00 h 0,00 h 0 W/m 2,4 km/h (1 Bft) 96,30 %
09.06.2020 05:00 12,2 C 11,7 C 11,7 C 96 % 1016,8 hPa 0,0 l/m 0,00 h 0,00 h 6 W/m 2,1 km/h (1 Bft) 98,00 %
09.06.2020 06:00 12,2 C 11,8 C 11,7 C 95 % 1017,2 hPa 0,0 l/m 0,00 h 0,00 h 22 W/m 1,5 km/h (1 Bft) 96,82 %
09.06.2020 07:00 12,6 C 12,7 C 12,2 C 94 % 1017,4 hPa 0,0 l/m 0,00 h 0,00 h 70 W/m 2,9 km/h (1 Bft) 96,58 %
09.06.2020 08:00 13,0 C 13,0 C 12,3 C 92 % 1017,9 hPa 0,0 l/m 0,00 h 0,00 h 76 W/m 2,6 km/h (1 Bft) 99,22 %
09.06.2020 09:00 13,3 C 13,5 C 12,8 C 90 % 1018,3 hPa 0,0 l/m 0,00 h 0,00 h 112 W/m 2,8 km/h (1 Bft) 95,45 %
09.06.2020 10:00 14,1 C 15,1 C 13,6 C 88 % 1018,6 hPa 0,0 l/m 0,00 h 0,00 h 203 W/m 4,1 km/h (1 Bft) 97,37 %
09.06.2020 11:00 15,0 C 16,1 C 14,3 C 85 % 1018,8 hPa 0,0 l/m 0,00 h 0,00 h 237 W/m 4,1 km/h (1 Bft) 98,65 %
09.06.2020 12:00 16,1 C 17,9 C 15,6 C 83 % 1018,7 hPa 0,0 l/m 0,00 h 0,00 h 307 W/m 5,2 km/h (1 Bft) 96,98 %
09.06.2020 13:00 17,7 C 20,4 C 17,2 C 78 % 1018,5 hPa 0,0 l/m 0,20 h 0,00 h 434 W/m 7,8 km/h (2 Bft) 98,57 %
09.06.2020 14:00 19,1 C 21,7 C 17,9 C 74 % 1018,1 hPa 0,0 l/m 0,63 h 0,00 h 455 W/m 6,3 km/h (2 Bft) 94,52 %
09.06.2020 15:00 18,9 C 19,4 C 17,2 C 74 % 1017,9 hPa 0,0 l/m 0,00 h 0,00 h 237 W/m 4,6 km/h (1 Bft) 99,01 %
09.06.2020 16:00 19,3 C 22,2 C 17,3 C 74 % 1017,6 hPa 0,0 l/m 0,77 h 0,00 h 525 W/m 6,9 km/h (2 Bft) 98,65 %
09.06.2020 17:00 20,6 C 21,2 C 17,8 C 69 % 1017,4 hPa 0,0 l/m 0,40 h 0,00 h 360 W/m 7,9 km/h (2 Bft) 96,37 %
09.06.2020 18:00 19,1 C 19,6 C 16,9 C 72 % 1017,2 hPa 0,0 l/m 0,67 h 0,00 h 282 W/m 8,7 km/h (2 Bft) 97,63 %
09.06.2020 19:00 18,7 C 18,3 C 16,1 C 72 % 1017,2 hPa 0,0 l/m 0,73 h 0,00 h 212 W/m 6,9 km/h (2 Bft) 97,94 %
09.06.2020 20:00 17,5 C 16,9 C 15,5 C 74 % 1017,5 hPa 0,0 l/m 0,90 h 0,00 h 99 W/m 6,6 km/h (2 Bft) 97,48 %
09.06.2020 21:00 16,3 C 14,5 C 14,2 C 76 % 1017,8 hPa 0,0 l/m 0,23 h 0,00 h 20 W/m 5,9 km/h (2 Bft) 96,95 %
09.06.2020 22:00 14,9 C 13,7 C 13,6 C 80 % 1018,1 hPa 0,0 l/m 0,00 h 0,00 h 0 W/m 4,5 km/h (1 Bft) 97,79 %
09.06.2020 23:00 14,6 C 13,6 C 13,3 C 80 % 1018,2 hPa 0,0 l/m 0,00 h 0,00 h 0 W/m 2,6 km/h (1 Bft) 98,22 %
10.06.2020 00:00 14,3 C 13,3 C 13,1 C 81 % 1018,1 hPa 0,0 l/m 0,00 h 0,03 h 0 W/m 2,3 km/h (1 Bft) 96,08 %
10.06.2020 01:00 14,2 C 13,1 C 12,9 C 81 % 1017,9 hPa 0,0 l/m 0,00 h 0,00 h 0 W/m 2,1 km/h (1 Bft) 97,89 %
10.06.2020 02:00 13,9 C 12,8 C 12,8 C 82 % 1017,4 hPa 0,0 l/m 0,00 h 0,00 h 0 W/m 0,4 km/h (0 Bft) 98,08 %
10.06.2020 03:00 13,6 C 12,5 C 12,5 C 83 % 1017,1 hPa 0,0 l/m 0,00 h 0,00 h 0 W/m 0,7 km/h (0 Bft) 96,71 %
10.06.2020 04:00 13,3 C 12,0 C 12,1 C 85 % 1016,6 hPa 0,0 l/m 0,00 h 0,00 h 0 W/m 0,2 km/h (0 Bft) 96,99 %
10.06.2020 05:00 12,8 C 11,7 C 11,4 C 86 % 1016,5 hPa 0,0 l/m 0,00 h 0,00 h 7 W/m 0,0 km/h (0 Bft) 98,09 %
10.06.2020 06:00 12,6 C 12,1 C 11,9 C 88 % 1016,5 hPa 0,0 l/m 0,00 h 0,00 h 21 W/m 0,0 km/h (0 Bft) 98,30 %
10.06.2020 07:00 13,1 C 13,4 C 12,6 C 90 % 1016,5 hPa 0,0 l/m 0,00 h 0,00 h 52 W/m 0,5 km/h (0 Bft) 96,45 %
10.06.2020 08:00 14,0 C 14,4 C 13,2 C 90 % 1016,4 hPa 0,0 l/m 0,00 h 0,00 h 99 W/m 0,2 km/h (0 Bft) 97,95 %
10.06.2020 09:00 15,0 C 16,4 C 14,4 C 88 % 1016,6 hPa 0,0 l/m 0,00 h 0,00 h 195 W/m 1,0 km/h (0 Bft) 98,15 %
10.06.2020 10:00 16,8 C 19,2 C 16,6 C 84 % 1016,5 hPa 0,0 l/m 0,00 h 0,00 h 327 W/m 1,0 km/h (0 Bft) 97,65 %
10.06.2020 11:00 18,5 C 21,2 C 18,2 C 79 % 1016,2 hPa 0,0 l/m 0,50 h 0,00 h 411 W/m 3,5 km/h (1 Bft) 95,41 %
10.06.2020 12:00 19,5 C 21,8 C 18,7 C 77 % 1015,8 hPa 0,0 l/m 0,57 h 0,00 h 435 W/m 5,7 km/h (1 Bft) 98,60 %
10.06.2020 13:00 20,0 C 22,2 C 19,0 C 74 % 1015,5 hPa 0,0 l/m 0,40 h 0,00 h 446 W/m 5,7 km/h (1 Bft) 97,48 %
10.06.2020 14:00 20,1 C 20,9 C 18,2 C 73 % 1015,3 hPa 0,0 l/m 0,00 h 0,00 h 292 W/m 4,3 km/h (1 Bft) 97,12 %
10.06.2020 15:00 20,3 C 22,3 C 18,6 C 73 % 1014,9 hPa 0,0 l/m 0,37 h 0,00 h 387 W/m 3,3 km/h (1 Bft) 97,72 %
10.06.2020 16:00 20,3 C 19,4 C 17,8 C 71 % 1014,6 hPa 0,0 l/m 0,00 h 0,00 h 161 W/m 3,3 km/h (1 Bft) 96,24 %
10.06.2020 17:00 19,2 C 18,4 C 17,1 C 76 % 1014,3 hPa 0,0 l/m 0,00 h 0,00 h 109 W/m 1,6 km/h (1 Bft) 99,07 %
10.06.2020 18:00 18,6 C 17,9 C 16,7 C 78 % 1014,0 hPa 0,0 l/m 0,00 h 0,00 h 74 W/m 0,7 km/h (0 Bft) 97,45 %
10.06.2020 19:00 18,2 C 17,3 C 16,4 C 79 % 1013,8 hPa 0,0 l/m 0,00 h 0,00 h 51 W/m 0,5 km/h (0 Bft) 95,87 %
10.06.2020 20:00 17,8 C 16,8 C 16,0 C 80 % 1013,6 hPa 0,0 l/m 0,00 h 0,00 h 43 W/m 0,1 km/h (0 Bft) 98,70 %
10.06.2020 21:00 17,3 C 15,9 C 15,2 C 79 % 1013,7 hPa 0,0 l/m 0,00 h 0,00 h 19 W/m 0,0 km/h (0 Bft) 97,74 %
10.06.2020 22:00 16,7 C 15,1 C 14,6 C 81 % 1013,9 hPa 0,0 l/m 0,00 h 0,00 h 0 W/m 0,0 km/h (0 Bft) 97,55 %
10.06.2020 23:00 16,0 C 14,4 C 14,0 C 83 % 1013,8 hPa 0,0 l/m 0,00 h 0,00 h 0 W/m 0,0 km/h (0 Bft) 97,08 %
11.06.2020 00:00 15,4 C 13,7 C 13,2 C 84 % 1013,6 hPa 0,0 l/m 0,00 h 0,00 h 0 W/m 0,0 km/h (0 Bft) 98,04 %
11.06.2020 01:00 14,7 C 13,0 C 12,8 C 86 % 1013,2 hPa 0,0 l/m 0,00 h 0,00 h 0 W/m 0,0 km/h (0 Bft) 97,72 %
11.06.2020 02:00 14,3 C 13,0 C 12,6 C 89 % 1012,8 hPa 0,0 l/m 0,00 h 0,00 h 0 W/m 0,0 km/h (0 Bft) 97,42 %
11.06.2020 03:00 14,0 C 12,8 C 12,5 C 90 % 1012,4 hPa 0,0 l/m 0,00 h 0,00 h 0 W/m 0,0 km/h (0 Bft) 97,43 %
11.06.2020 04:00 13,8 C 12,8 C 12,4 C 91 % 1012,1 hPa 0,0 l/m 0,00 h 0,00 h 0 W/m 0,0 km/h (0 Bft) 96,87 %
11.06.2020 05:00 13,6 C 12,7 C 12,2 C 92 % 1011,8 hPa 0,0 l/m 0,00 h 0,10 h 10 W/m 0,0 km/h (0 Bft) 98,66 %
11.06.2020 06:00 13,8 C 13,6 C 12,9 C 94 % 1011,5 hPa 0,0 l/m 0,00 h 0,10 h 35 W/m 0,0 km/h (0 Bft) 96,32 %
11.06.2020 07:00 14,4 C 13,9 C 13,4 C 95 % 1011,5 hPa 0,0 l/m 0,00 h 0,53 h 50 W/m 0,0 km/h (0 Bft) 94,99 %
11.06.2020 08:00 15,0 C 14,7 C 14,1 C 96 % 1011,6 hPa 0,0 l/m 0,00 h 0,30 h 101 W/m 0,4 km/h (0 Bft) 99,57 %
11.06.2020 09:00 15,9 C 17,7 C 15,6 C 95 % 1011,5 hPa 0,0 l/m 0,00 h 0,00 h 209 W/m 0,3 km/h (0 Bft) 97,61 %
11.06.2020 10:00 17,8 C 20,7 C 17,8 C 88 % 1011,2 hPa 0,0 l/m 0,30 h 0,00 h 351 W/m 1,6 km/h (1 Bft) 96,23 %
11.06.2020 11:00 19,4 C 21,0 C 18,3 C 81 % 1010,9 hPa 0,0 l/m 0,20 h 0,00 h 288 W/m 2,2 km/h (1 Bft) 96,96 %
11.06.2020 12:00 18,6 C 18,0 C 16,3 C 80 % 1010,8 hPa 0,0 l/m 0,00 h 0,00 h 121 W/m 1,5 km/h (1 Bft) 96,39 %
11.06.2020 13:00 18,1 C 17,4 C 15,9 C 82 % 1010,7 hPa 0,0 l/m 0,00 h 0,07 h 99 W/m 0,9 km/h (0 Bft) 97,89 %
11.06.2020 14:00 17,8 C 19,6 C 16,7 C 84 % 1010,7 hPa 0,0 l/m 0,13 h 0,00 h 277 W/m 1,2 km/h (1 Bft) 96,45 %
11.06.2020 15:00 20,4 C 22,0 C 18,5 C 77 % 1010,4 hPa 0,0 l/m 0,23 h 0,00 h 359 W/m 2,7 km/h (1 Bft) 98,93 %
11.06.2020 16:00 20,3 C 22,9 C 18,3 C 75 % 1010,0 hPa 0,0 l/m 0,57 h 0,00 h 428 W/m 3,2 km/h (1 Bft) 97,72 %
11.06.2020 17:00 21,9 C 22,1 C 18,8 C 69 % 1009,7 hPa 0,0 l/m 0,20 h 0,00 h 237 W/m 1,8 km/h (1 Bft) 96,84 %
11.06.2020 18:00 20,6 C 19,7 C 17,9 C 73 % 1009,7 hPa 0,0 l/m 0,00 h 0,00 h 103 W/m 0,9 km/h (0 Bft) 98,14 %
11.06.2020 19:00 20,1 C 19,8 C 18,0 C 74 % 1009,6 hPa 0,0 l/m 0,00 h 0,00 h 106 W/m 0,7 km/h (0 Bft) 96,68 %
11.06.2020 20:00 20,0 C 19,1 C 17,5 C 73 % 1009,5 hPa 0,0 l/m 0,00 h 0,00 h 68 W/m 1,2 km/h (1 Bft) 98,11 %
11.06.2020 21:00 19,5 C 17,7 C 16,9 C 74 % 1009,5 hPa 0,0 l/m 0,00 h 0,00 h 14 W/m 0,2 km/h (0 Bft) 98,45 %
11.06.2020 22:00 18,5 C 16,5 C 15,8 C 78 % 1009,8 hPa 0,0 l/m 0,00 h 0,00 h 0 W/m 0,0 km/h (0 Bft) 95,61 %
11.06.2020 23:00 17,2 C 15,0 C 14,5 C 80 % 1009,9 hPa 0,0 l/m 0,00 h 0,00 h 0 W/m 0,0 km/h (0 Bft) 97,73 %
12.06.2020 00:00 16,2 C 14,4 C 13,9 C 83 % 1010,0 hPa 0,0 l/m 0,00 h 0,00 h 0 W/m 0,0 km/h (0 Bft) 99,20 %
12.06.2020 01:00 15,5 C 13,7 C 13,2 C 86 % 1009,9 hPa 0,0 l/m 0,00 h 0,00 h 0 W/m 0,0 km/h (0 Bft) 96,29 %
12.06.2020 02:00 15,1 C 14,3 C 13,8 C 89 % 1009,7 hPa 0,0 l/m 0,00 h 0,00 h 0 W/m 0,0 km/h (0 Bft) 96,79 %
12.06.2020 03:00 15,3 C 14,3 C 13,8 C 91 % 1009,4 hPa 0,0 l/m 0,00 h 0,00 h 0 W/m 0,0 km/h (0 Bft) 98,86 %
12.06.2020 04:00 14,9 C 12,9 C 12,7 C 90 % 1008,9 hPa 0,0 l/m 0,00 h 0,00 h 0 W/m 0,0 km/h (0 Bft) 96,98 %
12.06.2020 05:00 13,9 C 12,0 C 11,8 C 91 % 1008,4 hPa 0,0 l/m 0,00 h 0,00 h 8 W/m 0,0 km/h (0 Bft) 98,22 %
12.06.2020 06:00 13,3 C 12,4 C 11,7 C 93 % 1008,3 hPa 0,0 l/m 0,00 h 0,00 h 20 W/m 0,0 km/h (0 Bft) 96,39 %
12.06.2020 07:00 13,7 C 14,2 C 12,6 C 96 % 1008,6 hPa 0,0 l/m 0,00 h 0,00 h 38 W/m 0,5 km/h (0 Bft) 96,86 %
12.06.2020 08:00 16,3 C 23,0 C 18,9 C 96 % 1008,4 hPa 0,0 l/m 0,00 h 0,00 h 61 W/m 5,7 km/h (1 Bft) 99,29 %
12.06.2020 09:00 20,9 C 26,0 C 26,5 C 80 % 1008,2 hPa 0,0 l/m 0,90 h 0,00 h 523 W/m 8,8 km/h (2 Bft) 96,38 %
12.06.2020 10:00 23,7 C 27,6 C 28,4 C 68 % 1007,8 hPa 0,0 l/m 1,00 h 0,00 h 730 W/m 13,6 km/h (3 Bft) 97,86 %
12.06.2020 11:00 25,1 C 29,2 C 26,8 C 61 % 1007,2 hPa 0,0 l/m 1,00 h 0,00 h 835 W/m 20,2 km/h (4 Bft) 97,58 %
12.06.2020 12:00 26,3 C 30,5 C 26,4 C 57 % 1006,8 hPa 0,0 l/m 1,00 h 0,00 h 956 W/m 18,2 km/h (3 Bft) 96,52 %
12.06.2020 13:00 27,2 C 31,0 C 28,1 C 54 % 1006,5 hPa 0,0 l/m 0,93 h 0,00 h 952 W/m 20,3 km/h (4 Bft) 98,79 %
12.06.2020 14:00 27,6 C 30,5 C 26,7 C 54 % 1006,3 hPa 0,0 l/m 0,77 h 0,00 h 731 W/m 17,2 km/h (3 Bft) 96,08 %
12.06.2020 15:00 28,8 C 32,9 C 27,3 C 50 % 1005,8 hPa 0,0 l/m 0,93 h 0,00 h 870 W/m 17,0 km/h (3 Bft) 98,08 %
12.06.2020 16:00 29,7 C 31,8 C 27,3 C 48 % 1005,5 hPa 0,0 l/m 0,90 h 0,00 h 629 W/m 14,5 km/h (3 Bft) 97,58 %
12.06.2020 17:00 29,6 C 31,1 C 26,5 C 48 % 1005,3 hPa 0,0 l/m 0,70 h 0,00 h 523 W/m 10,8 km/h (2 Bft) 96,30 %
12.06.2020 18:00 30,2 C 30,1 C 26,3 C 46 % 1005,0 hPa 0,0 l/m 0,67 h 0,00 h 370 W/m 12,2 km/h (2 Bft) 99,48 %
12.06.2020 19:00 27,7 C 24,7 C 23,2 C 53 % 1005,1 hPa 0,0 l/m 0,00 h 0,00 h 44 W/m 1,9 km/h (1 Bft) 96,46 %
12.06.2020 20:00 25,6 C 23,8 C 21,3 C 61 % 1005,1 hPa 0,0 l/m 0,00 h 0,00 h 37 W/m 0,0 km/h (0 Bft) 96,33 %
12.06.2020 21:00 23,8 C 20,9 C 19,4 C 65 % 1005,4 hPa 0,0 l/m 0,00 h 0,00 h 10 W/m 0,1 km/h (0 Bft) 99,29 %
12.06.2020 22:00 21,6 C 19,5 C 19,1 C 71 % 1007,0 hPa 0,0 l/m 0,00 h 0,00 h 0 W/m 14,8 km/h (3 Bft) 96,50 %
12.06.2020 23:00 18,4 C 16,3 C 17,0 C 84 % 1007,5 hPa 0,0 l/m 0,00 h 0,33 h 0 W/m 9,1 km/h (2 Bft) 96,09 %
13.06.2020 00:00 17,6 C 15,8 C 16,1 C 90 % 1008,2 hPa 0,0 l/m 0,00 h 0,00 h 0 W/m 0,1 km/h (0 Bft) 99,69 %
13.06.2020 01:00 17,2 C 15,9 C 16,1 C 92 % 1009,3 hPa 0,0 l/m 0,00 h 0,00 h 0 W/m 3,6 km/h (1 Bft) 96,51 %
13.06.2020 02:00 16,9 C 15,6 C 15,9 C 94 % 1010,4 hPa 0,0 l/m 0,00 h 0,00 h 0 W/m 4,7 km/h (1 Bft) 97,72 %
13.06.2020 03:00 16,7 C 15,0 C 15,2 C 94 % 1010,3 hPa 0,4 l/m 0,00 h 0,57 h 0 W/m 0,5 km/h (0 Bft) 98,00 %
13.06.2020 04:00 16,4 C 14,5 C 15,0 C 95 % 1009,7 hPa 0,0 l/m 0,00 h 0,00 h 0 W/m 1,0 km/h (0 Bft) 95,99 %
13.06.2020 05:00 16,2 C 14,6 C 15,0 C 96 % 1009,4 hPa 0,0 l/m 0,07 h 0,00 h 14 W/m 1,5 km/h (1 Bft) 99,43 %
13.06.2020 06:00 16,2 C 15,4 C 15,4 C 97 % 1009,8 hPa 0,0 l/m 0,00 h 0,00 h 43 W/m 0,8 km/h (0 Bft) 97,98 %
13.06.2020 07:00 16,8 C 16,8 C 16,7 C 97 % 1010,3 hPa 0,0 l/m 0,00 h 0,00 h 83 W/m 2,8 km/h (1 Bft) 95,16 %
13.06.2020 08:00 19,0 C 24,5 C 24,4 C 93 % 1010,6 hPa 0,0 l/m 0,00 h 0,00 h 73 W/m 3,1 km/h (1 Bft) 99,57 %
13.06.2020 09:00 22,8 C 27,1 C 35,1 C 78 % 1010,8 hPa 0,0 l/m 0,97 h 0,00 h 533 W/m 8,8 km/h (2 Bft) 97,72 %
13.06.2020 10:00 24,4 C 28,2 C 35,5 C 69 % 1011,0 hPa 0,0 l/m 0,90 h 0,00 h 685 W/m 12,0 km/h (2 Bft) 97,30 %
13.06.2020 11:00 25,8 C 30,1 C 31,1 C 64 % 1010,9 hPa 0,0 l/m 1,00 h 0,00 h 853 W/m 12,9 km/h (3 Bft) 97,87 %
13.06.2020 12:00 26,1 C 27,8 C 26,5 C 61 % 1010,9 hPa 0,0 l/m 0,33 h 0,00 h 481 W/m 14,9 km/h (3 Bft) 98,20 %
13.06.2020 13:00 25,4 C 28,8 C 26,8 C 60 % 1011,0 hPa 0,0 l/m 0,60 h 0,00 h 627 W/m 14,6 km/h (3 Bft) 97,56 %
13.06.2020 14:00 25,8 C 25,2 C 24,3 C 58 % 1011,1 hPa 0,0 l/m 0,07 h 0,00 h 215 W/m 11,7 km/h (2 Bft) 96,09 %
13.06.2020 15:00 25,0 C 25,5 C 23,8 C 61 % 1010,9 hPa 0,0 l/m 0,00 h 0,03 h 251 W/m 8,5 km/h (2 Bft) 99,50 %
13.06.2020 16:00 25,3 C 26,6 C 23,4 C 61 % 1010,7 hPa 0,0 l/m 0,17 h 0,00 h 314 W/m 4,4 km/h (1 Bft) 97,72 %
13.06.2020 17:00 26,2 C 28,5 C 23,2 C 60 % 1010,1 hPa 0,0 l/m 0,50 h 0,00 h 422 W/m 3,5 km/h (1 Bft) 95,89 %
13.06.2020 18:00 28,0 C 28,9 C 23,1 C 58 % 1009,7 hPa 0,0 l/m 1,00 h 0,00 h 462 W/m 3,6 km/h (1 Bft) 99,41 %
13.06.2020 19:00 27,1 C 25,6 C 21,5 C 62 % 1010,0 hPa 0,0 l/m 0,63 h 0,00 h 224 W/m 2,0 km/h (1 Bft) 98,65 %
13.06.2020 20:00 25,1 C 23,3 C 20,6 C 65 % 1010,6 hPa 0,0 l/m 0,00 h 0,00 h 35 W/m 0,2 km/h (0 Bft) 94,75 %
13.06.2020 21:00 23,8 C 21,4 C 19,3 C 69 % 1011,4 hPa 0,0 l/m 0,00 h 0,17 h 4 W/m 0,4 km/h (0 Bft) 98,94 %
13.06.2020 22:00 22,4 C 20,7 C 18,9 C 72 % 1011,5 hPa 0,0 l/m 0,00 h 0,00 h 0 W/m 0,4 km/h (0 Bft) 98,13 %
13.06.2020 23:00 21,6 C 19,4 C 17,9 C 75 % 1011,5 hPa 0,0 l/m 0,00 h 0,00 h 0 W/m 0,0 km/h (0 Bft) 95,18 %
14.06.2020 00:00 20,3 C 18,3 C 17,4 C 80 % 1011,8 hPa 0,0 l/m 0,00 h 0,00 h 0 W/m 0,2 km/h (0 Bft) 98,68 %
14.06.2020 01:00 19,5 C 18,1 C 17,6 C 85 % 1011,8 hPa 0,0 l/m 0,00 h 0,00 h 0 W/m 0,3 km/h (0 Bft) 97,23 %
14.06.2020 02:00 19,1 C 17,8 C 17,6 C 87 % 1011,6 hPa 0,0 l/m 0,00 h 0,00 h 0 W/m 1,0 km/h (0 Bft) 98,22 %
14.06.2020 03:00 19,0 C 18,0 C 17,7 C 87 % 1011,7 hPa 0,0 l/m 0,00 h 0,00 h 0 W/m 1,7 km/h (1 Bft) 97,51 %
14.06.2020 04:00 18,7 C 17,3 C 17,2 C 86 % 1011,8 hPa 0,0 l/m 0,00 h 0,00 h 0 W/m 0,6 km/h (0 Bft) 96,01 %
14.06.2020 05:00 18,2 C 16,9 C 16,7 C 87 % 1011,9 hPa 0,0 l/m 0,30 h 0,00 h 22 W/m 0,2 km/h (0 Bft) 98,79 %
14.06.2020 06:00 18,1 C 18,0 C 17,1 C 89 % 1012,6 hPa 0,0 l/m 0,07 h 0,00 h 54 W/m 0,6 km/h (0 Bft) 97,66 %
14.06.2020 07:00 18,7 C 19,2 C 18,3 C 88 % 1012,5 hPa 0,0 l/m 0,00 h 0,00 h 108 W/m 4,2 km/h (1 Bft) 95,08 %
14.06.2020 08:00 19,7 C 20,0 C 19,0 C 82 % 1012,8 hPa 0,0 l/m 0,00 h 0,00 h 147 W/m 9,7 km/h (2 Bft) 98,80 %
14.06.2020 09:00 19,8 C 19,7 C 19,0 C 81 % 1013,2 hPa 0,0 l/m 0,00 h 0,00 h 121 W/m 9,7 km/h (2 Bft) 97,59 %
14.06.2020 10:00 19,9 C 19,9 C 19,2 C 79 % 1013,6 hPa 0,0 l/m 0,00 h 0,00 h 148 W/m 9,1 km/h (2 Bft) 97,09 %
14.06.2020 11:00 20,4 C 21,3 C 20,1 C 78 % 1013,7 hPa 0,0 l/m 0,00 h 0,00 h 270 W/m 10,9 km/h (2 Bft) 97,50 %
14.06.2020 12:00 21,0 C 21,9 C 20,6 C 77 % 1013,9 hPa 0,0 l/m 0,00 h 0,00 h 286 W/m 12,7 km/h (3 Bft) 97,95 %
14.06.2020 13:00 22,3 C 24,8 C 22,7 C 76 % 1013,9 hPa 0,0 l/m 0,77 h 0,00 h 500 W/m 13,7 km/h (3 Bft) 97,88 %
14.06.2020 14:00 24,2 C 26,2 C 23,9 C 71 % 1013,7 hPa 0,0 l/m 0,47 h 0,00 h 501 W/m 13,5 km/h (3 Bft) 96,45 %
14.06.2020 15:00 22,5 C 22,2 C 21,2 C 74 % 1013,8 hPa 0,0 l/m 0,00 h 0,00 h 175 W/m 12,9 km/h (3 Bft) 98,58 %
14.06.2020 16:00 21,7 C 21,1 C 20,5 C 77 % 1014,0 hPa 0,0 l/m 0,00 h 0,00 h 104 W/m 13,3 km/h (3 Bft) 97,51 %
14.06.2020 17:00 20,7 C 18,5 C 19,1 C 83 % 1014,1 hPa 0,2 l/m 0,00 h 0,70 h 53 W/m 5,9 km/h (2 Bft) 96,92 %
14.06.2020 18:00 19,4 C 16,4 C 17,3 C 89 % 1014,6 hPa 1,0 l/m 0,00 h 1,00 h 46 W/m 5,3 km/h (1 Bft) 98,68 %
14.06.2020 19:00 17,9 C 15,5 C 16,0 C 92 % 1015,0 hPa 1,0 l/m 0,00 h 1,00 h 28 W/m 3,5 km/h (1 Bft) 97,88 %
14.06.2020 20:00 16,9 C 15,1 C 15,5 C 93 % 1015,2 hPa 0,0 l/m 0,00 h 0,57 h 14 W/m 1,0 km/h (0 Bft) 95,02 %
14.06.2020 21:00 16,6 C 14,5 C 15,1 C 94 % 1015,5 hPa 0,0 l/m 0,00 h 0,00 h 0 W/m 0,4 km/h (0 Bft) 99,29 %
14.06.2020 22:00 16,4 C 14,8 C 14,9 C 94 % 1015,9 hPa 0,0 l/m 0,00 h 0,00 h 0 W/m 0,0 km/h (0 Bft) 98,65 %
14.06.2020 23:00 16,4 C 14,8 C 14,5 C 95 % 1016,0 hPa 0,0 l/m 0,00 h 0,00 h 0 W/m 0,0 km/h (0 Bft) 95,23 %
Min-Datum _ 08.06.20 08.06.20 08.06.20 12.06.20 12.06.20 - - - - 08.06.20 11.06.20
_ Min-Zeit 05:36 05:12 05:12 18:00 18:32 - - - - 00:00 06:00
Minimum _ 11,7 C 10,6 C 10,6 C 45 % 1004,9 hPa - - - - 0,0 km/h (0 Bft) 55,56 %
Max-Datum _ 12.06.20 12.06.20 13.06.20 12.06.20 09.06.20 14.06.20 10.06.20 14.06.20 13.06.20 12.06.20 08.06.20
_ Max-Zeit 18:26 16:14 10:58 08:16 11:16 18:02 12:08 18:08 13:38 11:14 00:00
Maximum _ 30,6 C 35,0 C 38,9 C 98 % 1018,9 hPa 1,0 l/m 0,07 h 0,07 h 1207 W/m 38,6 km/h
O-SO (5 Bft)
100,00 %
Durchschnitt _ 18,2 C 18,3 C 17,1 C 80 % 1012,8 hPa #2,6 l/m #28:20 h #5:44 h 245 W/m 4,0 km/h (1 Bft) 97,47 %
© 2020 W. Hausmann